createdAt,value
2017-10-05T00:01:35.636Z,14.60
2017-10-05T00:04:03.123Z,14.60
2017-10-05T00:06:30.669Z,14.50
2017-10-05T00:08:58.103Z,14.50
2017-10-05T00:11:25.527Z,14.50
2017-10-05T00:13:53.045Z,14.60
2017-10-05T00:16:20.464Z,14.60
2017-10-05T00:18:47.949Z,14.60
2017-10-05T00:21:15.382Z,14.60
2017-10-05T00:23:42.795Z,14.50
2017-10-05T00:26:10.320Z,14.40
2017-10-05T00:28:37.731Z,14.30
2017-10-05T00:31:05.160Z,14.20
2017-10-05T00:33:33.516Z,14.00
2017-10-05T00:36:00.952Z,14.00
2017-10-05T00:38:28.423Z,14.00
2017-10-05T00:40:56.020Z,13.90
2017-10-05T00:43:23.439Z,13.90
2017-10-05T00:45:50.891Z,13.90
2017-10-05T00:48:18.316Z,13.90
2017-10-05T00:50:45.808Z,13.90
2017-10-05T00:53:13.443Z,13.80
2017-10-05T00:55:40.886Z,13.80
2017-10-05T00:58:08.292Z,13.70
2017-10-05T01:00:35.948Z,13.70
2017-10-05T01:03:03.367Z,13.70
2017-10-05T01:05:30.851Z,13.70
2017-10-05T01:07:58.271Z,13.70
2017-10-05T01:10:25.763Z,13.60
2017-10-05T01:12:53.195Z,13.50
2017-10-05T01:15:20.679Z,13.50
2017-10-05T01:17:48.116Z,13.40
2017-10-05T01:20:15.587Z,13.40
2017-10-05T01:22:43.053Z,13.40
2017-10-05T01:25:10.541Z,13.40
2017-10-05T01:27:37.941Z,13.30
2017-10-05T01:30:05.359Z,13.30
2017-10-05T01:32:32.869Z,13.20
2017-10-05T01:35:00.321Z,13.20
2017-10-05T01:37:27.751Z,13.20
2017-10-05T01:39:55.239Z,13.10
2017-10-05T01:42:22.671Z,13.00
2017-10-05T01:44:50.096Z,12.90
2017-10-05T01:47:17.551Z,12.90
2017-10-05T01:49:45.064Z,12.80
2017-10-05T01:52:12.481Z,12.70
2017-10-05T01:54:39.972Z,12.70
2017-10-05T01:57:07.392Z,12.70
2017-10-05T01:59:34.887Z,12.60
2017-10-05T02:02:02.316Z,12.60
2017-10-05T02:04:29.804Z,12.60
2017-10-05T02:06:57.232Z,12.60
2017-10-05T02:09:24.708Z,12.50
2017-10-05T02:11:52.168Z,12.50
2017-10-05T02:14:19.808Z,12.50
2017-10-05T02:16:47.327Z,12.40
2017-10-05T02:19:14.764Z,12.30
2017-10-05T02:21:42.302Z,12.30
2017-10-05T02:24:09.734Z,12.30
2017-10-05T02:26:37.242Z,12.30
2017-10-05T02:29:04.864Z,12.10
2017-10-05T02:31:32.288Z,12.10
2017-10-05T02:34:00.471Z,12.00
2017-10-05T02:36:27.905Z,12.00
2017-10-05T02:38:55.416Z,12.00
2017-10-05T02:41:22.870Z,12.00
2017-10-05T02:43:50.331Z,12.00
2017-10-05T02:46:17.788Z,11.90
2017-10-05T02:48:45.205Z,11.90
2017-10-05T02:51:12.697Z,11.90
2017-10-05T02:53:40.115Z,11.90
2017-10-05T02:56:07.544Z,11.80
2017-10-05T02:58:34.960Z,11.80
2017-10-05T03:01:02.499Z,11.90
2017-10-05T03:03:29.924Z,11.80
2017-10-05T03:05:57.344Z,11.80
2017-10-05T03:08:24.899Z,11.80
2017-10-05T03:10:52.315Z,11.80
2017-10-05T03:13:19.807Z,11.80
2017-10-05T03:15:47.227Z,11.80
2017-10-05T03:18:14.717Z,11.90
2017-10-05T03:20:42.140Z,12.00
2017-10-05T03:23:09.632Z,12.00
2017-10-05T03:25:37.051Z,12.10
2017-10-05T03:28:04.479Z,12.20
2017-10-05T03:30:32.000Z,12.40
2017-10-05T03:32:59.453Z,12.50
2017-10-05T03:35:26.894Z,12.60
2017-10-05T03:37:54.368Z,12.70
2017-10-05T03:40:21.815Z,12.70
2017-10-05T03:42:49.248Z,12.80
2017-10-05T03:45:16.669Z,12.80
2017-10-05T03:47:44.105Z,12.90
2017-10-05T03:50:11.555Z,12.90
2017-10-05T03:52:38.984Z,12.90
2017-10-05T03:55:06.411Z,13.00
2017-10-05T03:57:33.926Z,13.10
2017-10-05T04:00:01.480Z,13.20
2017-10-05T04:02:29.103Z,13.20
2017-10-05T04:04:56.693Z,13.30
2017-10-05T04:07:24.119Z,13.30
2017-10-05T04:09:51.530Z,13.30
2017-10-05T04:12:18.947Z,13.30
2017-10-05T04:14:46.431Z,13.30
2017-10-05T04:17:13.872Z,13.50
2017-10-05T04:19:41.303Z,13.50
2017-10-05T04:22:08.787Z,13.50
2017-10-05T04:24:36.226Z,13.50
2017-10-05T04:27:03.736Z,13.50
2017-10-05T04:29:31.168Z,13.50
2017-10-05T04:31:58.707Z,13.50
2017-10-05T04:34:26.164Z,13.60
2017-10-05T04:36:53.596Z,13.60
2017-10-05T04:39:21.019Z,13.70
2017-10-05T04:41:48.539Z,13.60
2017-10-05T04:44:15.967Z,13.60
2017-10-05T04:46:43.392Z,13.60
2017-10-05T04:49:10.857Z,13.60
2017-10-05T04:51:38.280Z,13.60
2017-10-05T04:54:05.691Z,13.60
2017-10-05T04:56:33.117Z,13.70
2017-10-05T04:59:00.535Z,13.70
2017-10-05T05:01:27.966Z,13.80
2017-10-05T05:03:55.541Z,13.70
2017-10-05T05:06:23.099Z,13.70
2017-10-05T05:08:50.520Z,13.70
2017-10-05T05:11:17.952Z,13.80
2017-10-05T05:13:45.471Z,13.80
2017-10-05T05:16:12.895Z,13.80
2017-10-05T05:18:40.320Z,13.80
2017-10-05T05:21:07.784Z,13.80
2017-10-05T05:23:35.204Z,13.80
2017-10-05T05:26:02.635Z,13.80
2017-10-05T05:28:30.106Z,13.80
2017-10-05T05:30:57.660Z,13.80
2017-10-05T05:33:25.124Z,13.80
2017-10-05T05:35:52.567Z,13.80
2017-10-05T05:38:19.991Z,13.80
2017-10-05T05:40:47.501Z,13.80
2017-10-05T05:43:14.912Z,13.80
2017-10-05T05:45:42.439Z,13.80
2017-10-05T05:48:10.163Z,13.80
2017-10-05T05:50:37.599Z,13.80
2017-10-05T05:53:05.079Z,13.80
2017-10-05T05:55:32.499Z,13.80
2017-10-05T05:57:59.988Z,13.80
2017-10-05T06:00:27.408Z,13.80
2017-10-05T06:02:54.831Z,13.80
2017-10-05T06:05:22.264Z,13.80
2017-10-05T06:07:49.821Z,13.80
2017-10-05T06:10:17.438Z,13.80
2017-10-05T06:12:45.651Z,13.90
2017-10-05T06:15:13.058Z,13.90
2017-10-05T06:17:40.556Z,13.90
2017-10-05T06:20:07.987Z,13.90
2017-10-05T06:22:35.400Z,13.90
2017-10-05T06:25:02.845Z,13.90
2017-10-05T06:27:30.396Z,13.90
2017-10-05T06:29:58.035Z,14.00
2017-10-05T06:32:25.463Z,14.00
2017-10-05T06:34:53.659Z,14.00
2017-10-05T06:37:21.137Z,14.00
2017-10-05T06:39:48.592Z,14.00
2017-10-05T06:42:16.021Z,14.10
2017-10-05T06:44:43.454Z,14.10
2017-10-05T06:47:10.875Z,14.10
2017-10-05T06:49:38.323Z,14.10
2017-10-05T06:52:05.865Z,14.20
2017-10-05T06:54:33.299Z,14.20
2017-10-05T06:57:00.785Z,14.20
2017-10-05T06:59:28.238Z,14.30
2017-10-05T07:01:55.824Z,14.30
2017-10-05T07:04:23.462Z,14.30
2017-10-05T07:06:50.901Z,14.40
2017-10-05T07:09:18.722Z,14.40
2017-10-05T07:11:46.158Z,14.50
2017-10-05T07:14:13.760Z,14.50
2017-10-05T07:16:42.155Z,14.50
2017-10-05T07:19:09.595Z,14.40
2017-10-05T07:21:37.810Z,14.50
2017-10-05T07:24:05.224Z,14.50
2017-10-05T07:26:32.712Z,14.50
2017-10-05T07:29:00.137Z,14.60
2017-10-05T07:31:27.565Z,14.60
2017-10-05T07:33:55.086Z,14.70
2017-10-05T07:36:22.535Z,14.80
2017-10-05T07:38:50.015Z,14.90
2017-10-05T07:41:17.453Z,15.00
2017-10-05T07:43:44.868Z,15.10
2017-10-05T07:46:12.295Z,15.30
2017-10-05T07:48:39.744Z,15.40
2017-10-05T07:51:07.172Z,15.50
2017-10-05T07:53:34.736Z,15.60
2017-10-05T07:56:02.160Z,15.60
2017-10-05T07:58:29.596Z,15.70
2017-10-05T08:00:57.024Z,15.80
2017-10-05T08:03:24.443Z,15.80
2017-10-05T08:05:52.015Z,15.80
2017-10-05T08:08:19.448Z,15.80
2017-10-05T08:10:46.856Z,15.80
2017-10-05T08:13:15.255Z,15.80
2017-10-05T08:15:42.671Z,15.80
2017-10-05T08:18:10.220Z,15.70
2017-10-05T08:20:37.643Z,15.80
2017-10-05T08:23:05.080Z,15.80
2017-10-05T08:25:32.591Z,15.80
2017-10-05T08:28:00.048Z,16.00
2017-10-05T08:30:27.472Z,16.10
2017-10-05T08:32:54.903Z,16.20
2017-10-05T08:35:22.313Z,16.30
2017-10-05T08:37:49.785Z,16.30
2017-10-05T08:40:17.187Z,16.30
2017-10-05T08:42:44.611Z,16.40
2017-10-05T08:45:12.234Z,16.50
2017-10-05T08:47:39.694Z,16.50
2017-10-05T08:50:07.103Z,16.50
2017-10-05T08:52:34.599Z,16.60
2017-10-05T08:55:02.024Z,16.70
2017-10-05T08:57:29.436Z,16.60
2017-10-05T08:59:56.855Z,16.70
2017-10-05T09:02:25.144Z,16.70
2017-10-05T09:04:52.687Z,16.80
2017-10-05T09:07:20.266Z,16.80
2017-10-05T09:09:47.771Z,16.90
2017-10-05T09:12:16.883Z,16.80
2017-10-05T09:14:45.100Z,16.80
2017-10-05T09:17:13.427Z,16.70
2017-10-05T09:19:40.846Z,16.70
2017-10-05T09:22:08.379Z,16.70
2017-10-05T09:24:35.812Z,16.70
2017-10-05T09:27:03.231Z,16.60
2017-10-05T09:29:30.655Z,16.60
2017-10-05T09:31:58.079Z,16.60
2017-10-05T09:34:25.668Z,16.60
2017-10-05T09:36:53.091Z,16.60
2017-10-05T09:39:20.580Z,16.70
2017-10-05T09:41:48.041Z,16.70
2017-10-05T09:44:15.453Z,16.80
2017-10-05T09:46:42.871Z,16.90
2017-10-05T09:49:10.300Z,16.90
2017-10-05T09:51:37.869Z,16.90
2017-10-05T09:54:05.284Z,17.00
2017-10-05T09:56:32.768Z,17.00
2017-10-05T09:59:00.175Z,17.10
2017-10-05T10:01:27.591Z,17.20
2017-10-05T10:03:55.139Z,17.30
2017-10-05T10:06:23.519Z,17.30
2017-10-05T10:08:50.979Z,17.30
2017-10-05T10:11:18.415Z,17.40
2017-10-05T10:13:45.839Z,17.40
2017-10-05T10:16:13.253Z,17.50
2017-10-05T10:18:40.803Z,17.60
2017-10-05T10:21:08.219Z,17.80
2017-10-05T10:23:35.707Z,17.90
2017-10-05T10:26:03.120Z,18.00
2017-10-05T10:28:30.543Z,18.10
2017-10-05T10:30:58.080Z,18.10
2017-10-05T10:33:25.544Z,18.10
2017-10-05T10:35:52.951Z,18.20
2017-10-05T10:38:20.449Z,18.20
2017-10-05T10:40:47.865Z,18.30
2017-10-05T10:43:15.297Z,18.30
2017-10-05T10:45:42.725Z,18.30
2017-10-05T10:48:10.291Z,18.50
2017-10-05T10:50:37.723Z,18.40
2017-10-05T10:53:05.147Z,18.40
2017-10-05T10:55:32.569Z,18.20
2017-10-05T10:58:00.025Z,18.00
2017-10-05T11:00:27.444Z,18.00
2017-10-05T11:02:54.883Z,17.90
2017-10-05T11:05:22.472Z,17.80
2017-10-05T11:07:49.923Z,17.80
2017-10-05T11:10:17.347Z,17.80
2017-10-05T11:12:44.764Z,17.80
2017-10-05T11:15:12.288Z,17.70
2017-10-05T11:17:39.704Z,17.80
2017-10-05T11:20:07.201Z,17.80
2017-10-05T11:22:34.616Z,17.70
2017-10-05T11:25:02.045Z,17.50
2017-10-05T11:27:29.455Z,17.40
2017-10-05T11:29:56.880Z,17.30
2017-10-05T11:32:25.103Z,17.30
2017-10-05T11:34:52.523Z,17.30
2017-10-05T11:37:20.009Z,17.40
2017-10-05T11:39:47.695Z,17.30
2017-10-05T11:42:15.235Z,17.20
2017-10-05T11:44:42.997Z,16.90
2017-10-05T11:47:10.453Z,16.80
2017-10-05T11:49:37.879Z,16.70
2017-10-05T11:52:05.366Z,16.70
2017-10-05T11:54:32.827Z,16.60
2017-10-05T11:57:00.281Z,16.70
2017-10-05T11:59:27.740Z,16.70
2017-10-05T12:01:55.473Z,16.80
2017-10-05T12:04:22.964Z,16.70
2017-10-05T12:06:50.403Z,16.70
2017-10-05T12:09:17.835Z,16.70
2017-10-05T12:11:45.327Z,16.70
2017-10-05T12:14:12.756Z,16.60
2017-10-05T12:16:40.234Z,16.60
2017-10-05T12:19:07.693Z,16.50
2017-10-05T12:21:35.150Z,16.50
2017-10-05T12:24:02.608Z,16.50
2017-10-05T12:26:30.038Z,16.60
2017-10-05T12:28:57.441Z,16.60
2017-10-05T12:31:24.980Z,16.50
2017-10-05T12:33:52.396Z,16.50
2017-10-05T12:36:19.819Z,16.40
2017-10-05T12:38:47.248Z,16.30
2017-10-05T12:41:14.712Z,16.20
2017-10-05T12:43:42.164Z,16.20
2017-10-05T12:46:09.612Z,16.10
2017-10-05T12:48:37.177Z,16.00
2017-10-05T12:51:04.628Z,15.90
2017-10-05T12:53:32.050Z,15.90
2017-10-05T12:55:59.479Z,15.90
2017-10-05T12:58:26.992Z,15.90
2017-10-05T13:00:54.417Z,15.80
2017-10-05T13:03:21.904Z,15.70
2017-10-05T13:05:49.326Z,15.50
2017-10-05T13:08:16.736Z,15.30
2017-10-05T13:10:44.168Z,15.10
2017-10-05T13:13:11.731Z,15.00
2017-10-05T13:15:39.191Z,14.90
2017-10-05T13:18:06.612Z,14.90
2017-10-05T13:20:34.041Z,14.80
2017-10-05T13:23:01.552Z,14.80
2017-10-05T13:25:29.316Z,14.70
2017-10-05T13:27:56.731Z,14.80
2017-10-05T13:30:24.231Z,14.70
2017-10-05T13:32:51.643Z,14.70
2017-10-05T13:35:19.071Z,14.80
2017-10-05T13:37:46.601Z,14.80
2017-10-05T13:40:14.057Z,14.80
2017-10-05T13:42:41.470Z,14.80
2017-10-05T13:45:08.969Z,14.80
2017-10-05T13:47:36.384Z,14.90
2017-10-05T13:50:03.881Z,15.00
2017-10-05T13:52:31.312Z,15.00
2017-10-05T13:54:58.736Z,15.00
2017-10-05T13:57:26.252Z,15.00
2017-10-05T13:59:53.680Z,15.00
2017-10-05T14:02:21.155Z,14.90
2017-10-05T14:04:48.627Z,14.80
2017-10-05T14:07:16.055Z,14.80
2017-10-05T14:09:43.529Z,14.80
2017-10-05T14:12:10.975Z,14.80
2017-10-05T14:14:38.396Z,14.80
2017-10-05T14:17:05.828Z,14.80
2017-10-05T14:19:33.256Z,14.80
2017-10-05T14:22:00.696Z,14.80
2017-10-05T14:24:28.195Z,14.90
2017-10-05T14:26:55.732Z,14.90
2017-10-05T14:29:23.187Z,14.90
2017-10-05T14:31:50.637Z,14.90
2017-10-05T14:34:18.061Z,14.90
2017-10-05T14:36:45.570Z,14.90
2017-10-05T14:39:13.183Z,14.90
2017-10-05T14:41:40.770Z,14.90
2017-10-05T14:44:08.187Z,14.90
2017-10-05T14:46:35.628Z,14.90
2017-10-05T14:49:03.052Z,14.90
2017-10-05T14:51:30.479Z,14.90
2017-10-05T14:53:57.960Z,14.90
2017-10-05T14:56:25.391Z,14.90
2017-10-05T14:58:52.959Z,14.90
2017-10-05T15:01:20.383Z,14.90
2017-10-05T15:03:47.840Z,14.90
2017-10-05T15:06:15.344Z,15.00
2017-10-05T15:08:42.770Z,15.00
2017-10-05T15:11:10.192Z,15.10
2017-10-05T15:13:37.702Z,15.10
2017-10-05T15:16:05.119Z,15.10
2017-10-05T15:18:32.616Z,15.10
2017-10-05T15:21:00.040Z,15.10
2017-10-05T15:23:27.472Z,15.00
2017-10-05T15:25:54.989Z,15.00
2017-10-05T15:28:22.623Z,14.90
2017-10-05T15:30:50.195Z,14.90
2017-10-05T15:33:17.629Z,14.90
2017-10-05T15:35:45.115Z,14.80
2017-10-05T15:38:12.549Z,14.80
2017-10-05T15:40:39.955Z,14.80
2017-10-05T15:43:07.383Z,14.80
2017-10-05T15:45:34.821Z,14.80
2017-10-05T15:48:02.399Z,14.80
2017-10-05T15:50:29.833Z,14.80
2017-10-05T15:52:57.256Z,14.70
2017-10-05T15:55:24.767Z,14.80
2017-10-05T15:57:52.187Z,14.80
2017-10-05T16:00:19.626Z,14.70
2017-10-05T16:02:47.048Z,14.70
2017-10-05T16:05:14.597Z,14.60
2017-10-05T16:07:42.047Z,14.60
2017-10-05T16:10:09.508Z,14.60
2017-10-05T16:12:36.956Z,14.50
2017-10-05T16:15:04.412Z,14.50
2017-10-05T16:17:31.881Z,14.40
2017-10-05T16:19:59.327Z,14.40
2017-10-05T16:22:26.742Z,14.40
2017-10-05T16:24:54.167Z,14.40
2017-10-05T16:27:21.604Z,14.30
2017-10-05T16:29:49.068Z,14.30
2017-10-05T16:32:16.614Z,14.30
2017-10-05T16:34:44.315Z,14.30
2017-10-05T16:37:11.738Z,14.20
2017-10-05T16:39:39.283Z,14.20
2017-10-05T16:42:06.703Z,14.20
2017-10-05T16:44:34.204Z,14.10
2017-10-05T16:47:01.975Z,14.10
2017-10-05T16:49:29.423Z,14.10
2017-10-05T16:51:56.957Z,14.10
2017-10-05T16:54:24.516Z,14.10
2017-10-05T16:56:52.019Z,14.10
2017-10-05T16:59:19.464Z,14.00
2017-10-05T17:01:47.011Z,14.00
2017-10-05T17:04:14.463Z,14.00
2017-10-05T17:06:41.882Z,14.00
2017-10-05T17:09:09.383Z,14.00
2017-10-05T17:11:36.815Z,13.90
2017-10-05T17:14:04.299Z,13.90
2017-10-05T17:16:31.748Z,13.90
2017-10-05T17:18:59.166Z,13.80
2017-10-05T17:21:26.656Z,13.70
2017-10-05T17:23:54.113Z,13.70
2017-10-05T17:26:21.572Z,13.60
2017-10-05T17:28:48.991Z,13.50
2017-10-05T17:31:16.481Z,13.30
2017-10-05T17:33:43.938Z,13.30
2017-10-05T17:36:11.376Z,13.20
2017-10-05T17:38:38.801Z,13.20
2017-10-05T17:41:06.244Z,13.10
2017-10-05T17:43:33.787Z,13.10
2017-10-05T17:46:01.412Z,13.00
2017-10-05T17:48:28.999Z,13.00
2017-10-05T17:50:56.448Z,13.00
2017-10-05T17:53:23.859Z,13.00
2017-10-05T17:55:51.303Z,13.00
2017-10-05T17:58:18.812Z,13.00
2017-10-05T18:00:46.256Z,12.90
2017-10-05T18:03:13.724Z,13.00
2017-10-05T18:05:41.487Z,12.90
2017-10-05T18:08:08.943Z,12.90
2017-10-05T18:10:36.404Z,12.90
2017-10-05T18:13:03.859Z,12.90
2017-10-05T18:15:31.305Z,12.90
2017-10-05T18:17:58.772Z,12.90
2017-10-05T18:20:26.528Z,12.80
2017-10-05T18:22:53.986Z,12.80
2017-10-05T18:25:21.703Z,12.70
2017-10-05T18:27:49.136Z,12.70
2017-10-05T18:30:16.561Z,12.70
2017-10-05T18:32:44.028Z,12.60
2017-10-05T18:35:11.451Z,12.60
2017-10-05T18:37:39.032Z,12.60
2017-10-05T18:40:06.500Z,12.50
2017-10-05T18:42:34.249Z,12.50
2017-10-05T18:45:01.689Z,12.40
2017-10-05T18:47:29.104Z,12.30
2017-10-05T18:49:56.551Z,12.30
2017-10-05T18:52:23.979Z,12.30
2017-10-05T18:54:51.491Z,12.30
2017-10-05T18:57:18.991Z,12.30
2017-10-05T18:59:46.439Z,12.20
2017-10-05T19:02:13.872Z,12.20
2017-10-05T19:04:41.319Z,12.30
2017-10-05T19:07:08.732Z,12.20
2017-10-05T19:09:36.277Z,12.20
2017-10-05T19:12:04.038Z,12.10
2017-10-05T19:14:31.698Z,12.10
2017-10-05T19:16:59.255Z,12.00
2017-10-05T19:19:27.029Z,12.00
2017-10-05T19:21:55.405Z,12.00
2017-10-05T19:24:22.856Z,12.00
2017-10-05T19:26:50.330Z,12.00
2017-10-05T19:29:17.769Z,12.00
2017-10-05T19:31:45.541Z,12.00
2017-10-05T19:34:12.989Z,12.00
2017-10-05T19:36:42.142Z,11.90
2017-10-05T19:39:09.625Z,11.80
2017-10-05T19:41:37.208Z,11.90
2017-10-05T19:44:04.966Z,11.90
2017-10-05T19:46:32.393Z,12.00
2017-10-05T19:48:59.826Z,12.00
2017-10-05T19:51:27.340Z,11.90
2017-10-05T19:53:55.098Z,12.00
2017-10-05T19:56:22.552Z,12.00
2017-10-05T19:58:49.980Z,12.00
2017-10-05T20:01:17.434Z,12.00
2017-10-05T20:03:44.870Z,12.00
2017-10-05T20:06:12.292Z,12.00
2017-10-05T20:08:39.845Z,11.90
2017-10-05T20:11:07.499Z,11.90
2017-10-05T20:13:52.815Z,11.80
2017-10-05T20:16:35.123Z,11.70
2017-10-05T20:19:04.583Z,11.70
2017-10-05T20:21:32.434Z,11.60
2017-10-05T20:37:24.767Z,11.50
2017-10-05T20:39:52.534Z,11.40
2017-10-05T20:42:19.988Z,11.50
2017-10-05T20:44:47.419Z,11.50
2017-10-05T20:47:14.903Z,11.40
2017-10-05T20:49:42.357Z,11.40
2017-10-05T20:52:09.776Z,11.40
2017-10-05T20:54:37.217Z,11.40
2017-10-05T20:57:04.641Z,11.40
2017-10-05T20:59:32.185Z,11.30
2017-10-05T21:01:59.646Z,11.30
2017-10-05T21:04:27.405Z,11.30
2017-10-05T21:06:55.032Z,11.30
2017-10-05T21:09:22.497Z,11.30
2017-10-05T21:11:49.976Z,11.30
2017-10-05T21:14:17.539Z,11.30
2017-10-05T21:16:45.302Z,11.30
2017-10-05T21:19:12.744Z,11.30
2017-10-05T21:21:40.168Z,11.30
2017-10-05T21:24:07.605Z,11.30
2017-10-05T21:26:35.032Z,11.30
2017-10-05T21:29:02.583Z,11.20
2017-10-05T21:31:30.041Z,11.20
2017-10-05T21:33:57.472Z,11.20
2017-10-05T21:36:24.945Z,11.10
2017-10-05T21:38:52.381Z,11.10
2017-10-05T21:41:19.865Z,11.10
2017-10-05T21:43:47.312Z,11.00
2017-10-05T21:46:14.768Z,11.00
2017-10-05T21:48:42.196Z,10.90
2017-10-05T21:51:09.629Z,10.90
2017-10-05T21:53:37.057Z,10.90
2017-10-05T21:56:04.508Z,10.80
2017-10-05T21:58:31.956Z,10.80
2017-10-05T22:00:59.448Z,10.70
2017-10-05T22:03:26.961Z,10.70
2017-10-05T22:05:54.417Z,10.70
2017-10-05T22:08:21.885Z,10.70
2017-10-05T22:10:49.328Z,10.70
2017-10-05T22:13:16.793Z,10.60
2017-10-05T22:15:44.254Z,10.60
2017-10-05T22:18:11.669Z,10.60
2017-10-05T22:20:39.097Z,10.50
2017-10-05T22:23:06.612Z,10.50
2017-10-05T22:25:34.044Z,10.60
2017-10-05T22:28:01.525Z,10.50
2017-10-05T22:30:28.989Z,10.50
2017-10-05T22:32:56.445Z,10.60
2017-10-05T22:35:23.881Z,10.60
2017-10-05T22:37:51.352Z,10.50
2017-10-05T22:40:18.784Z,10.50
2017-10-05T22:42:46.209Z,10.50
2017-10-05T22:45:13.704Z,10.50
2017-10-05T22:47:41.129Z,10.50
2017-10-05T22:50:08.633Z,10.40
2017-10-05T22:52:36.093Z,10.40
2017-10-05T22:55:03.720Z,10.40
2017-10-05T22:57:31.175Z,10.40
2017-10-05T22:59:59.344Z,10.30
2017-10-05T23:02:26.777Z,10.30
2017-10-05T23:04:54.288Z,10.30
2017-10-05T23:07:21.729Z,10.20
2017-10-05T23:09:49.152Z,10.20
2017-10-05T23:12:16.601Z,10.30
2017-10-05T23:14:44.031Z,10.30
2017-10-05T23:17:11.469Z,10.20
2017-10-05T23:19:39.057Z,10.20
2017-10-05T23:22:06.801Z,10.10
2017-10-05T23:24:34.353Z,10.00
2017-10-05T23:27:02.012Z,9.90
2017-10-05T23:29:29.648Z,10.00
2017-10-05T23:31:57.232Z,10.00
2017-10-05T23:34:24.769Z,10.00
2017-10-05T23:36:52.452Z,10.10
2017-10-05T23:39:20.084Z,10.00
2017-10-05T23:41:47.616Z,10.00
2017-10-05T23:44:15.057Z,9.90
2017-10-05T23:46:42.502Z,9.90
2017-10-05T23:49:09.948Z,9.90
2017-10-05T23:51:37.509Z,9.90
2017-10-05T23:54:05.261Z,9.90
2017-10-05T23:56:32.681Z,9.90
2017-10-05T23:59:00.121Z,9.90
